Time;durP1;ratioP1;P1;durP2;ratioP2;P2;SDS_P1;SDS_P2;PMS_P1;PMS_P2;Temp;Humidity;BMP_temperature;BMP_pressure;BME280_temperature;BME280_humidity;BME280_pressure;Samples;Min_cycle;Max_cycle;Signal;HPM_P1;HPM_P2
2022/02/02 00:01:21;;;;;;;3.90;3.50;;;8.40;99.90;;;;;;5055191;28;20207;-67
2022/02/02 00:03:52;;;;;;;3.88;3.22;;;8.40;99.90;;;;;;5055102;28;20254;-67
2022/02/02 00:06:23;;;;;;;4.32;3.33;;;8.40;99.90;;;;;;5054912;28;20595;-68
2022/02/02 00:08:57;;;;;;;5.32;3.17;;;8.30;99.90;;;;;;5055528;28;20620;-67
2022/02/02 00:14:18;;;;;;;4.57;4.07;;;8.40;99.90;;;;;;5054957;28;20604;-67
2022/02/02 00:16:51;;;;;;;5.10;4.18;;;8.40;99.90;;;;;;5054636;28;20203;-67
2022/02/02 00:19:28;;;;;;;4.40;3.75;;;8.40;99.90;;;;;;5055137;28;20204;-67
2022/02/02 00:21:59;;;;;;;4.47;3.17;;;8.40;99.90;;;;;;5054827;28;20203;-67
2022/02/02 00:24:34;;;;;;;3.92;3.30;;;8.50;99.90;;;;;;5054641;28;20227;-67
2022/02/02 00:27:05;;;;;;;5.45;3.40;;;8.50;99.90;;;;;;5054423;28;20213;-68
2022/02/02 00:29:36;;;;;;;3.60;3.30;;;8.50;99.90;;;;;;5054701;28;20316;-68
2022/02/02 00:32:13;;;;;;;4.18;2.95;;;8.50;99.90;;;;;;5054570;28;20282;-68
2022/02/02 00:34:40;;;;;;;6.28;2.83;;;8.50;99.90;;;;;;5054560;28;20227;-68
2022/02/02 00:37:07;;;;;;;3.15;2.45;;;8.50;99.90;;;;;;5054536;28;20265;-68
2022/02/02 00:39:34;;;;;;;3.15;2.40;;;8.50;99.90;;;;;;5054242;28;20203;-68
2022/02/02 00:42:03;;;;;;;3.70;2.25;;;8.50;99.90;;;;;;5067036;28;20297;-68
2022/02/02 00:44:30;;;;;;;3.78;2.60;;;8.60;99.90;;;;;;5095936;28;20232;-68
2022/02/02 00:46:57;;;;;;;2.60;2.40;;;8.60;99.90;;;;;;5096021;28;20298;-68
2022/02/02 00:49:26;;;;;;;3.95;2.40;;;8.60;99.90;;;;;;5094984;28;20249;-68
2022/02/02 00:51:57;;;;;;;2.47;1.90;;;8.60;99.90;;;;;;5095826;28;20209;-68
2022/02/02 00:54:27;;;;;;;3.72;2.10;;;8.60;99.90;;;;;;5095866;28;20222;-68
2022/02/02 00:56:54;;;;;;;3.40;2.53;;;8.60;99.90;;;;;;5095728;28;20245;-68
2022/02/02 00:59:22;;;;;;;2.90;2.38;;;8.60;99.90;;;;;;5095937;28;20202;-69
2022/02/02 01:01:50;;;;;;;2.60;2.10;;;8.60;99.90;;;;;;5095528;28;20237;-68
2022/02/02 01:04:17;;;;;;;2.45;2.15;;;8.70;99.90;;;;;;5095436;28;20226;-68
2022/02/02 01:06:53;;;;;;;3.80;2.30;;;8.70;99.90;;;;;;5095553;28;20201;-68
2022/02/02 01:09:26;;;;;;;2.33;1.90;;;8.70;99.90;;;;;;5095385;28;20201;-68
2022/02/02 01:12:18;;;;;;;2.35;2.13;;;8.70;99.90;;;;;;5095575;28;20229;-68
2022/02/02 01:17:58;;;;;;;1.77;1.63;;;8.80;99.90;;;;;;5096047;28;20213;-68
2022/02/02 01:20:35;;;;;;;2.45;2.25;;;8.80;99.90;;;;;;5096061;28;20202;-68
2022/02/02 01:28:34;;;;;;;5.05;2.55;;;8.90;99.90;;;;;;5096431;28;20231;-68
2022/02/02 01:31:01;;;;;;;3.00;2.20;;;8.90;99.90;;;;;;5095084;28;20202;-68
2022/02/02 01:33:28;;;;;;;2.35;2.15;;;8.90;99.90;;;;;;5096333;28;20243;-68
2022/02/02 01:35:56;;;;;;;3.00;2.50;;;9.00;99.90;;;;;;5094791;28;20316;-68
2022/02/02 01:38:27;;;;;;;4.97;2.33;;;8.90;99.90;;;;;;5095113;28;20293;-68
2022/02/02 01:40:58;;;;;;;3.78;2.40;;;8.90;99.90;;;;;;5095106;28;20198;-68
2022/02/02 01:43:29;;;;;;;2.78;2.45;;;8.90;99.90;;;;;;5095523;28;20561;-68
2022/02/02 01:46:00;;;;;;;2.47;1.40;;;8.90;99.90;;;;;;5094836;28;20630;-68
2022/02/02 01:48:33;;;;;;;5.07;2.47;;;8.90;99.90;;;;;;5094821;28;20217;-68
2022/02/02 01:51:15;;;;;;;2.70;2.50;;;9.00;99.90;;;;;;5094616;28;20206;-68
2022/02/02 01:53:51;;;;;;;2.72;1.80;;;8.90;99.90;;;;;;5094805;28;20198;-68
2022/02/02 01:56:19;;;;;;;3.30;2.33;;;9.00;99.90;;;;;;5094847;28;20194;-68
2022/02/02 01:59:00;;;;;;;3.97;2.30;;;9.00;99.90;;;;;;5094818;28;20206;-68
2022/02/02 02:01:28;;;;;;;2.95;2.20;;;9.00;99.90;;;;;;5094390;28;20229;-68
2022/02/02 02:03:55;;;;;;;2.55;2.35;;;9.00;99.90;;;;;;5094594;28;20218;-68
2022/02/02 02:06:22;;;;;;;3.70;2.70;;;9.00;99.90;;;;;;5094479;28;20300;-68
2022/02/02 02:08:50;;;;;;;3.00;2.70;;;9.00;99.90;;;;;;5094311;28;20304;-68
2022/02/02 02:11:19;;;;;;;3.10;2.80;;;9.00;99.90;;;;;;5093999;28;20202;-68
2022/02/02 02:16:33;;;;;;;4.15;3.47;;;9.00;99.90;;;;;;5088739;28;20190;-68
2022/02/02 02:19:00;;;;;;;5.70;3.72;;;9.10;99.90;;;;;;5094176;28;20301;-68
2022/02/02 02:21:27;;;;;;;3.85;3.53;;;9.10;99.90;;;;;;5093977;28;20206;-68
2022/02/02 02:23:58;;;;;;;4.13;3.72;;;9.00;99.90;;;;;;5093972;28;20222;-68
2022/02/02 02:26:27;;;;;;;6.55;4.00;;;9.00;99.90;;;;;;5094249;28;20603;-68
2022/02/02 02:29:09;;;;;;;5.40;4.35;;;9.00;99.90;;;;;;5094145;28;20587;-68
2022/02/02 02:31:44;;;;;;;4.07;3.22;;;8.90;99.90;;;;;;5094034;28;20259;-68
2022/02/02 02:34:26;;;;;;;4.35;2.55;;;8.70;99.90;;;;;;5094191;28;20217;-68
2022/02/02 02:37:16;;;;;;;3.30;2.92;;;8.50;99.90;;;;;;5094052;28;20205;-68
2022/02/02 02:39:53;;;;;;;6.68;3.40;;;8.50;99.90;;;;;;5093953;28;20213;-67
2022/02/02 02:56:03;;;;;;;9.02;6.13;;;8.50;99.90;;;;;;5093888;28;20694;-68
2022/02/02 03:01:34;;;;;;;7.35;4.85;;;8.60;99.90;;;;;;5077837;28;20655;-68
2022/02/02 03:31:37;;;;;;;7.70;3.78;;;8.90;99.90;;;;;;5097297;28;20202;-68
2022/02/02 03:54:01;;;;;;;7.85;4.30;;;9.00;99.90;;;;;;5071183;28;20186;-68
2022/02/02 03:56:34;;;;;;;7.82;3.67;;;9.00;99.90;;;;;;5096617;28;20614;-68
2022/02/02 03:59:14;;;;;;;6.75;3.60;;;9.00;99.90;;;;;;5096994;28;20205;-68
2022/02/02 04:02:06;;;;;;;5.45;3.25;;;8.90;99.90;;;;;;5096462;28;20247;-68
2022/02/02 04:04:44;;;;;;;7.97;3.17;;;8.90;99.90;;;;;;5096853;28;20230;-68
2022/02/02 04:07:18;;;;;;;5.85;3.00;;;8.80;99.90;;;;;;5096544;28;20194;-68
2022/02/02 04:09:46;;;;;;;7.40;3.50;;;8.80;99.90;;;;;;5097092;28;20202;-68
2022/02/02 04:12:21;;;;;;;9.45;3.70;;;8.80;99.90;;;;;;5097221;28;20210;-68
2022/02/02 04:18:11;;;;;;;5.50;2.80;;;8.80;99.90;;;;;;5065551;28;20205;-68
2022/02/02 04:37:46;;;;;;;9.30;4.10;;;8.70;99.90;;;;;;5096383;28;20185;-68
2022/02/02 04:51:33;;;;;;;6.55;3.80;;;8.70;99.90;;;;;;5095832;28;20283;-68
2022/02/02 04:59:35;;;;;;;6.38;3.35;;;8.70;99.90;;;;;;5095872;28;20197;-68
2022/02/02 05:02:47;;;;;;;7.72;3.22;;;8.70;99.90;;;;;;5095543;28;20663;-68
2022/02/02 05:05:37;;;;;;;8.73;3.15;;;8.70;99.90;;;;;;5095190;28;20222;-68
2022/02/02 05:08:14;;;;;;;9.07;3.60;;;8.70;99.90;;;;;;5095973;28;20208;-68
2022/02/02 05:10:53;;;;;;;4.63;2.63;;;8.70;99.90;;;;;;5095903;28;20213;-67
2022/02/02 05:16:14;;;;;;;7.07;3.97;;;8.70;99.90;;;;;;5062207;28;20567;-68
2022/02/02 05:19:03;;;;;;;9.88;3.97;;;8.60;99.90;;;;;;5095324;28;20241;-68
2022/02/02 05:43:54;;;;;;;5.90;3.25;;;8.60;99.90;;;;;;5032808;28;20224;-67
2022/02/02 05:49:04;;;;;;;5.70;3.03;;;8.50;99.90;;;;;;5095011;28;20694;-68
2022/02/02 05:51:43;;;;;;;6.25;4.28;;;8.50;99.90;;;;;;5094822;28;20451;-68
2022/02/02 05:54:09;;;;;;;9.38;3.03;;;8.50;99.90;;;;;;5094787;28;20639;-67
2022/02/02 05:56:43;;;;;;;14.07;3.70;;;8.50;99.90;;;;;;5094853;28;20206;-68
2022/02/02 05:59:11;;;;;;;11.30;5.57;;;8.50;99.90;;;;;;5095061;28;20307;-68
2022/02/02 06:01:43;;;;;;;9.27;3.75;;;8.50;99.90;;;;;;5094574;28;20210;-68
2022/02/02 06:04:11;;;;;;;4.65;1.95;;;8.50;99.90;;;;;;5094628;28;20222;-68
2022/02/02 06:06:39;;;;;;;8.63;3.20;;;8.40;99.90;;;;;;5094578;28;20297;-68
2022/02/02 06:09:07;;;;;;;4.30;2.90;;;8.40;99.90;;;;;;5094613;28;20206;-67
2022/02/02 06:11:34;;;;;;;6.93;3.38;;;8.50;99.90;;;;;;5094423;28;20252;-68
2022/02/02 06:14:03;;;;;;;6.45;3.05;;;8.50;99.90;;;;;;5094413;28;20287;-68
2022/02/02 06:16:30;;;;;;;6.38;3.42;;;8.50;99.90;;;;;;5094506;28;20206;-68
2022/02/02 06:18:59;;;;;;;9.10;3.10;;;8.60;99.90;;;;;;5094343;28;20244;-68
2022/02/02 06:21:30;;;;;;;9.05;3.67;;;8.60;99.90;;;;;;5094205;28;20567;-68
2022/02/02 06:24:07;;;;;;;6.10;2.80;;;8.70;99.90;;;;;;5094195;28;20263;-68
2022/02/02 06:26:35;;;;;;;8.00;3.47;;;8.70;99.90;;;;;;5094476;28;20200;-68
2022/02/02 06:29:06;;;;;;;7.45;3.45;;;8.70;99.90;;;;;;5094521;28;20229;-68
2022/02/02 06:31:35;;;;;;;10.75;2.90;;;8.80;99.90;;;;;;5093771;28;20202;-68
2022/02/02 06:34:03;;;;;;;4.60;2.78;;;8.80;99.90;;;;;;5094078;28;20255;-68
2022/02/02 06:36:31;;;;;;;6.38;3.20;;;8.80;99.90;;;;;;5094272;28;20202;-68
2022/02/02 06:38:58;;;;;;;9.27;3.78;;;8.80;99.90;;;;;;5094369;28;20202;-68
2022/02/02 06:41:27;;;;;;;9.88;3.00;;;8.70;99.90;;;;;;5093981;28;20198;-68
2022/02/02 06:43:54;;;;;;;7.93;4.35;;;8.70;99.90;;;;;;5093804;28;20208;-68
2022/02/02 06:46:27;;;;;;;10.98;3.60;;;8.70;99.90;;;;;;5093133;28;20559;-68
2022/02/02 06:48:54;;;;;;;5.82;3.63;;;8.70;99.90;;;;;;5094099;28;20533;-68
2022/02/02 06:51:30;;;;;;;7.43;3.53;;;8.70;99.90;;;;;;5094266;28;20198;-68
2022/02/02 06:54:02;;;;;;;10.63;3.92;;;8.70;99.90;;;;;;5093961;28;20575;-68
2022/02/02 06:56:43;;;;;;;10.43;4.03;;;8.70;99.90;;;;;;5093694;28;20233;-68
2022/02/02 06:59:26;;;;;;;8.00;3.50;;;8.70;99.90;;;;;;5094663;28;20207;-68
2022/02/02 07:02:09;;;;;;;8.25;3.70;;;8.70;99.90;;;;;;5093833;28;20205;-68
2022/02/02 07:08:02;;;;;;;8.07;3.65;;;8.70;99.90;;;;;;5088159;28;20213;-68
2022/02/02 07:10:45;;;;;;;11.05;3.65;;;8.70;99.90;;;;;;5093463;28;20198;-68
2022/02/02 07:13:24;;;;;;;12.32;3.47;;;8.80;99.90;;;;;;5093811;28;20288;-68
2022/02/02 07:16:06;;;;;;;7.82;3.67;;;8.80;99.90;;;;;;5094223;28;20233;-68
2022/02/02 07:18:43;;;;;;;11.90;4.45;;;8.70;99.90;;;;;;5093586;28;20302;-68
2022/02/02 07:21:23;;;;;;;8.68;3.70;;;8.70;99.90;;;;;;5093527;28;20212;-68
2022/02/02 07:27:02;;;;;;;9.90;3.78;;;8.70;99.90;;;;;;5090876;28;20205;-68
2022/02/02 07:29:37;;;;;;;6.97;4.28;;;8.70;99.90;;;;;;5093608;28;20198;-68
2022/02/02 07:32:10;;;;;;;8.57;4.20;;;8.70;99.90;;;;;;5093555;28;20212;-68
2022/02/02 07:34:57;;;;;;;10.77;4.65;;;8.70;99.90;;;;;;5093548;28;20580;-68
2022/02/02 07:37:32;;;;;;;8.63;4.15;;;8.70;99.90;;;;;;5093528;28;20687;-68
2022/02/02 07:40:02;;;;;;;7.75;3.88;;;8.60;99.90;;;;;;5093411;28;20210;-68
2022/02/02 07:42:30;;;;;;;10.88;3.85;;;8.70;99.90;;;;;;5093537;28;20202;-68
2022/02/02 07:45:03;;;;;;;9.40;4.07;;;8.70;99.90;;;;;;5093455;28;20237;-68
2022/02/02 07:47:33;;;;;;;11.20;4.82;;;8.80;99.90;;;;;;5093241;28;20690;-69
2022/02/02 07:50:05;;;;;;;8.40;3.70;;;8.90;99.90;;;;;;5093183;28;20297;-68
2022/02/02 07:52:33;;;;;;;9.95;4.65;;;8.80;99.90;;;;;;5093716;28;20301;-68
2022/02/02 07:55:02;;;;;;;7.60;4.30;;;8.80;99.90;;;;;;5093300;28;20218;-68
2022/02/02 07:57:30;;;;;;;8.65;4.32;;;8.70;99.90;;;;;;5094219;28;20676;-68
2022/02/02 07:59:59;;;;;;;9.90;5.32;;;8.70;99.90;;;;;;5097183;28;20198;-69
2022/02/02 08:02:37;;;;;;;13.88;3.40;;;8.70;99.90;;;;;;5097085;28;20581;-68
2022/02/02 08:05:09;;;;;;;8.88;4.05;;;8.70;99.90;;;;;;5096736;28;20267;-68
2022/02/02 08:07:40;;;;;;;16.95;7.28;;;8.50;99.90;;;;;;5097218;28;20206;-68
2022/02/02 08:10:12;;;;;;;7.00;3.85;;;8.60;99.90;;;;;;5096725;28;20230;-68
2022/02/02 08:12:46;;;;;;;10.10;4.50;;;8.60;99.90;;;;;;5096783;28;20269;-68
2022/02/02 08:15:14;;;;;;;5.50;3.72;;;8.60;99.90;;;;;;5096360;28;20226;-68
2022/02/02 08:17:43;;;;;;;10.48;2.85;;;8.60;99.90;;;;;;5096177;28;20699;-68
2022/02/02 08:20:12;;;;;;;8.07;3.40;;;8.70;99.90;;;;;;5096129;28;20220;-68
2022/02/02 08:22:40;;;;;;;8.80;4.60;;;8.70;99.90;;;;;;5096583;28;20294;-68
2022/02/02 08:25:08;;;;;;;9.35;3.88;;;8.70;99.90;;;;;;5096395;28;20226;-68
2022/02/02 08:27:39;;;;;;;9.73;4.50;;;8.70;99.90;;;;;;5096481;28;20319;-68
2022/02/02 08:30:11;;;;;;;8.70;4.47;;;8.70;99.90;;;;;;5096166;28;20216;-68
2022/02/02 08:32:43;;;;;;;8.45;4.03;;;8.70;99.90;;;;;;5096084;28;20656;-68
2022/02/02 08:35:13;;;;;;;7.07;4.40;;;8.60;99.90;;;;;;5095934;28;20707;-68
2022/02/02 08:37:45;;;;;;;8.95;5.43;;;8.50;99.90;;;;;;5096334;28;20206;-68
2022/02/02 08:40:27;;;;;;;10.43;4.10;;;8.60;99.90;;;;;;5096001;28;20237;-68
2022/02/02 08:42:55;;;;;;;9.68;4.80;;;8.50;99.90;;;;;;5096014;28;20202;-68
2022/02/02 08:45:25;;;;;;;10.63;4.43;;;8.50;99.90;;;;;;5096272;28;20226;-68
2022/02/02 08:47:57;;;;;;;7.00;5.00;;;8.30;99.90;;;;;;5096061;28;20198;-68
2022/02/02 08:50:36;;;;;;;10.05;5.07;;;8.30;99.90;;;;;;5095751;28;20233;-68
2022/02/02 08:53:12;;;;;;;3.17;2.72;;;8.30;99.90;;;;;;5095864;28;20237;-68
2022/02/02 08:58:41;;;;;;;9.35;5.32;;;8.10;99.90;;;;;;5033439;28;20196;-68
2022/02/02 09:01:12;;;;;;;10.52;5.25;;;8.10;99.90;;;;;;5033383;28;20212;-68
2022/02/02 09:06:25;;;;;;;13.20;5.30;;;8.20;99.90;;;;;;5095899;28;20728;-68
2022/02/02 09:09:01;;;;;;;9.27;5.13;;;8.20;99.90;;;;;;5094815;28;20199;-68
2022/02/02 09:25:12;;;;;;;11.52;5.22;;;8.60;99.90;;;;;;5075166;28;20607;-68
2022/02/02 09:35:53;;;;;;;10.40;3.80;;;8.90;99.90;;;;;;5075690;28;20213;-68
2022/02/02 09:38:22;;;;;;;7.30;4.38;;;9.00;99.90;;;;;;5074915;28;20202;-68
2022/02/02 09:43:47;;;;;;;9.57;5.15;;;8.90;99.90;;;;;;5059385;28;20190;-68
2022/02/02 09:46:18;;;;;;;8.10;4.55;;;8.90;99.90;;;;;;5074646;28;20237;-69
2022/02/02 09:48:48;;;;;;;8.27;4.00;;;9.10;99.90;;;;;;5074819;28;20591;-68
2022/02/02 09:51:23;;;;;;;8.93;5.18;;;9.20;99.90;;;;;;5074307;28;20214;-68
2022/02/02 09:53:58;;;;;;;9.18;4.45;;;9.20;99.90;;;;;;5074490;28;20210;-68
2022/02/02 09:56:42;;;;;;;10.45;3.90;;;9.20;99.90;;;;;;5074640;28;20183;-68
2022/02/02 10:02:31;;;;;;;9.98;4.85;;;9.10;99.90;;;;;;5068787;28;20194;-68
2022/02/02 10:08:11;;;;;;;11.60;4.40;;;9.10;99.90;;;;;;5074102;28;20285;-69
2022/02/02 10:13:35;;;;;;;9.57;5.10;;;9.30;99.90;;;;;;5074352;28;20704;-68
2022/02/02 10:16:02;;;;;;;8.88;3.95;;;9.60;99.90;;;;;;5074447;28;20225;-69
2022/02/02 10:18:31;;;;;;;6.32;4.32;;;9.60;99.90;;;;;;5073710;28;20241;-69
2022/02/02 10:20:59;;;;;;;8.07;4.03;;;9.60;99.90;;;;;;5073893;28;20206;-68
2022/02/02 10:23:27;;;;;;;6.63;4.10;;;9.70;99.90;;;;;;5074227;28;20225;-68
2022/02/02 10:26:00;;;;;;;7.57;4.15;;;9.80;99.90;;;;;;5073844;28;20322;-68
2022/02/02 10:28:30;;;;;;;6.55;3.20;;;9.80;99.90;;;;;;5073763;28;20586;-68
2022/02/02 10:31:07;;;;;;;9.23;3.90;;;9.60;99.90;;;;;;5073631;28;20297;-68
2022/02/02 10:33:35;;;;;;;6.50;4.28;;;9.70;99.90;;;;;;5073930;28;20541;-68
2022/02/02 10:36:11;;;;;;;6.55;3.25;;;9.70;99.90;;;;;;5073830;28;20215;-68
2022/02/02 10:38:46;;;;;;;5.15;3.55;;;9.80;99.90;;;;;;5073853;28;20243;-68
2022/02/02 10:41:23;;;;;;;4.75;2.88;;;10.00;99.90;;;;;;5073529;28;20657;-68
2022/02/02 10:43:54;;;;;;;7.78;4.13;;;9.90;99.90;;;;;;5073402;28;20475;-68
2022/02/02 10:46:28;;;;;;;9.98;4.32;;;9.80;99.90;;;;;;5073687;28;20214;-68
2022/02/02 10:49:01;;;;;;;12.70;3.95;;;9.80;99.90;;;;;;5073909;28;20207;-68
2022/02/02 10:51:38;;;;;;;7.82;5.20;;;9.80;99.90;;;;;;5073447;28;20206;-68
2022/02/02 10:54:23;;;;;;;10.80;4.35;;;9.70;99.90;;;;;;5073566;28;20201;-68
2022/02/02 10:57:04;;;;;;;8.93;4.40;;;9.70;99.90;;;;;;5073624;28;20639;-68
2022/02/02 10:59:58;;;;;;;4.78;4.20;;;9.80;99.90;;;;;;5073564;28;20210;-68
2022/02/02 11:07:56;;;;;;;8.60;4.45;;;10.10;99.90;;;;;;5073590;28;20198;-68
2022/02/02 11:10:23;;;;;;;9.80;4.32;;;10.00;99.90;;;;;;5073143;28;20202;-68
2022/02/02 11:12:55;;;;;;;11.30;4.50;;;10.00;99.90;;;;;;5073136;28;20571;-68
2022/02/02 11:15:29;;;;;;;10.27;4.05;;;10.10;99.90;;;;;;5073414;28;20222;-68
2022/02/02 11:18:06;;;;;;;11.63;4.07;;;10.20;99.90;;;;;;5073277;28;20210;-68
2022/02/02 11:20:33;;;;;;;11.57;3.95;;;10.20;99.90;;;;;;5073138;28;20661;-68
2022/02/02 11:23:01;;;;;;;8.82;5.03;;;10.30;99.90;;;;;;5073247;28;20608;-68
2022/02/02 11:25:37;;;;;;;9.48;4.50;;;10.20;99.90;;;;;;5072847;28;20315;-68
2022/02/02 11:28:08;;;;;;;9.05;4.47;;;10.40;99.90;;;;;;5073286;28;20668;-68
2022/02/02 11:30:41;;;;;;;3.78;3.20;;;10.70;99.90;;;;;;5072919;28;20661;-68
2022/02/02 11:33:25;;;;;;;7.85;3.15;;;10.90;99.90;;;;;;5075195;28;20280;-68
2022/02/02 11:35:57;;;;;;;7.93;3.33;;;10.90;99.90;;;;;;5077625;28;20226;-68
2022/02/02 11:38:42;;;;;;;10.48;4.10;;;10.80;99.90;;;;;;5077069;28;20302;-68
2022/02/02 11:41:22;;;;;;;9.50;4.05;;;10.60;99.90;;;;;;5076990;28;20205;-68
2022/02/02 11:43:56;;;;;;;9.40;3.60;;;10.60;99.90;;;;;;5077020;28;20260;-68
2022/02/02 11:46:49;;;;;;;14.18;4.90;;;10.40;99.90;;;;;;5076994;28;20292;-68
2022/02/02 11:49:19;;;;;;;6.70;4.10;;;10.50;99.90;;;;;;5076983;28;20249;-68
2022/02/02 11:51:47;;;;;;;9.27;4.57;;;10.60;99.90;;;;;;5076623;28;20238;-68
2022/02/02 11:54:15;;;;;;;5.18;3.20;;;10.40;99.90;;;;;;5076857;28;20226;-68
2022/02/02 11:57:23;;;;;;;10.45;4.43;;;10.20;99.90;;;;;;5076734;28;20198;-68
2022/02/02 12:00:05;;;;;;;9.27;4.35;;;10.20;99.90;;;;;;5077103;28;20195;-68
2022/02/02 12:02:53;;;;;;;6.88;4.55;;;10.10;99.90;;;;;;5076594;28;20217;-68
2022/02/02 12:05:43;;;;;;;8.57;3.72;;;10.10;99.90;;;;;;5076237;28;20223;-68
2022/02/02 12:08:25;;;;;;;7.70;3.90;;;10.00;99.90;;;;;;5076533;28;20233;-68
2022/02/02 12:11:21;;;;;;;8.75;3.95;;;10.00;99.90;;;;;;5076248;28;20297;-68
2022/02/02 12:27:59;;;;;;;6.55;3.20;;;11.20;99.90;;;;;;5044970;28;20203;-68
2022/02/02 12:44:37;;;;;;;7.18;3.40;;;10.70;99.90;;;;;;5076316;28;20289;-68
2022/02/02 12:47:34;;;;;;;8.55;4.65;;;10.20;99.90;;;;;;5013801;28;20579;-68
2022/02/02 12:50:16;;;;;;;7.93;5.03;;;10.20;99.90;;;;;;5069319;28;20552;-68
2022/02/02 12:58:14;;;;;;;9.68;3.95;;;10.10;99.90;;;;;;5075805;28;20233;-68
2022/02/02 13:01:06;;;;;;;15.27;6.00;;;10.10;99.90;;;;;;5075434;28;20215;-68
2022/02/02 13:03:29;;;;;;;11.02;4.63;;;9.90;99.90;;;;;;5075430;28;20210;-68
2022/02/02 13:05:57;;;;;;;11.02;4.95;;;9.60;99.90;;;;;;5075438;28;20226;-68
2022/02/02 13:08:24;;;;;;;7.07;4.18;;;9.50;99.90;;;;;;5075396;28;20324;-68
2022/02/02 13:10:51;;;;;;;8.60;4.25;;;9.50;99.90;;;;;;5075037;28;20202;-68
2022/02/02 13:13:24;;;;;;;5.65;3.40;;;9.60;99.90;;;;;;5075607;28;20221;-68
2022/02/02 13:16:00;;;;;;;7.13;3.70;;;9.60;99.90;;;;;;5075006;28;20227;-68
2022/02/02 13:18:34;;;;;;;4.47;3.42;;;9.60;99.90;;;;;;5075052;28;20206;-68
2022/02/02 13:21:08;;;;;;;9.25;4.15;;;9.70;99.90;;;;;;5075257;28;20230;-68
2022/02/02 13:23:55;;;;;;;4.50;3.65;;;9.80;99.90;;;;;;5075580;28;20237;-69
2022/02/02 13:26:28;;;;;;;7.85;3.20;;;9.80;99.90;;;;;;5075178;28;20572;-68
2022/02/02 13:29:01;;;;;;;3.20;2.90;;;9.80;99.90;;;;;;5075054;28;20237;-68
2022/02/02 13:34:25;;;;;;;3.38;2.40;;;9.90;99.90;;;;;;5074634;28;20211;-68
2022/02/02 13:37:12;;;;;;;2.67;1.80;;;9.90;99.90;;;;;;5074981;28;20203;-68
2022/02/02 13:42:55;;;;;;;3.13;2.42;;;9.50;99.90;;;;;;5074012;28;20175;-69
2022/02/02 13:51:08;;;;;;;1.92;1.65;;;9.70;99.90;;;;;;5070416;28;20286;-68
2022/02/02 13:59:35;;;;;;;2.92;2.35;;;9.60;99.90;;;;;;5058611;28;20198;-68
2022/02/02 14:02:15;;;;;;;2.78;2.47;;;9.60;99.90;;;;;;5073955;28;20187;-68
2022/02/02 14:05:14;;;;;;;3.67;2.60;;;9.60;99.90;;;;;;5074179;28;20264;-68
2022/02/02 14:07:47;;;;;;;5.07;2.60;;;9.70;99.90;;;;;;5073793;28;20684;-68
2022/02/02 14:10:32;;;;;;;4.88;3.03;;;9.70;99.90;;;;;;5074077;28;20191;-68
2022/02/02 14:32:11;;;;;;;5.78;3.65;;;9.40;99.90;;;;;;5074421;28;20182;-68
2022/02/02 14:34:37;;;;;;;7.28;3.85;;;9.50;99.90;;;;;;5073779;28;20227;-68
2022/02/02 14:37:11;;;;;;;4.05;3.40;;;9.60;99.90;;;;;;5073842;28;20226;-68
2022/02/02 14:39:48;;;;;;;6.72;4.32;;;9.70;99.90;;;;;;5073704;28;20186;-68
2022/02/02 14:42:21;;;;;;;7.68;4.97;;;9.60;99.90;;;;;;5073830;28;20298;-68
2022/02/02 14:44:48;;;;;;;7.18;4.20;;;9.60;99.90;;;;;;5073598;28;20229;-68
2022/02/02 14:47:20;;;;;;;5.75;3.70;;;9.60;99.90;;;;;;5073885;28;20268;-69
2022/02/02 14:49:54;;;;;;;10.38;4.22;;;9.60;99.90;;;;;;5073502;28;20209;-68
2022/02/02 14:52:30;;;;;;;7.80;4.40;;;9.60;99.90;;;;;;5073910;28;20244;-68
2022/02/02 15:09:14;;;;;;;8.18;5.00;;;9.30;99.90;;;;;;5076511;28;20230;-68
2022/02/02 15:28:14;;;;;;;7.97;4.35;;;9.20;99.90;;;;;;5077778;28;20737;-68
2022/02/02 15:30:52;;;;;;;7.85;3.67;;;9.20;99.90;;;;;;5077008;28;20656;-68
2022/02/02 15:33:23;;;;;;;4.22;3.65;;;9.30;99.90;;;;;;5077252;28;20190;-68
2022/02/02 15:35:59;;;;;;;7.45;3.50;;;9.30;99.90;;;;;;5077187;28;20218;-68
2022/02/02 15:38:28;;;;;;;6.95;4.10;;;9.20;99.90;;;;;;5077248;28;20272;-69
2022/02/02 15:41:00;;;;;;;7.70;3.53;;;9.20;99.90;;;;;;5077011;28;20198;-67
2022/02/02 15:43:35;;;;;;;6.65;3.85;;;9.10;99.90;;;;;;5077074;28;20191;-68
2022/02/02 16:00:13;;;;;;;7.13;3.67;;;8.90;99.90;;;;;;5076568;28;20277;-68
2022/02/02 16:03:04;;;;;;;3.78;3.47;;;9.00;99.90;;;;;;5076748;28;20198;-69
2022/02/02 16:05:40;;;;;;;5.68;3.25;;;9.00;99.90;;;;;;5076725;28;20233;-68
2022/02/02 16:08:08;;;;;;;7.03;4.22;;;9.00;99.90;;;;;;5076600;28;20238;-69
2022/02/02 16:10:47;;;;;;;5.53;3.72;;;9.00;99.90;;;;;;5076275;28;20202;-68
2022/02/02 16:13:30;;;;;;;7.50;3.40;;;9.00;99.90;;;;;;5076564;28;20187;-68
2022/02/02 16:16:01;;;;;;;5.72;3.83;;;8.90;99.90;;;;;;5076366;28;20223;-68
2022/02/02 16:18:43;;;;;;;4.75;4.03;;;8.90;99.90;;;;;;5075888;28;20210;-68
2022/02/02 16:32:51;;;;;;;5.53;3.30;;;8.90;99.90;;;;;;5076309;28;20198;-68
2022/02/02 16:38:09;;;;;;;5.88;3.00;;;8.90;99.90;;;;;;5075719;28;20191;-68
2022/02/02 16:40:37;;;;;;;4.18;3.55;;;8.90;99.90;;;;;;5076040;28;20202;-68
2022/02/02 16:43:13;;;;;;;3.42;3.13;;;8.90;99.90;;;;;;5076190;28;20206;-68
2022/02/02 16:45:41;;;;;;;4.20;3.08;;;8.90;99.90;;;;;;5076171;28;20276;-68
2022/02/02 16:48:09;;;;;;;5.75;3.88;;;8.80;99.90;;;;;;5075559;28;20227;-68
2022/02/02 16:50:40;;;;;;;4.20;3.60;;;8.90;99.90;;;;;;5075881;28;20280;-68
2022/02/02 16:53:13;;;;;;;6.07;4.07;;;8.90;99.90;;;;;;5076090;28;20200;-68
2022/02/02 16:55:47;;;;;;;5.43;3.83;;;9.00;99.90;;;;;;5075789;28;20679;-68
2022/02/02 17:24:16;;;;;;;5.85;3.33;;;9.00;99.90;;;;;;5075692;28;20202;-68
2022/02/02 17:31:20;;;;;;;6.18;4.40;;;9.10;99.90;;;;;;5040867;28;20199;-68
2022/02/02 17:33:52;;;;;;;3.80;3.25;;;9.10;99.90;;;;;;5075156;28;20203;-68
2022/02/02 17:36:24;;;;;;;5.15;4.18;;;9.10;99.90;;;;;;5074960;28;20645;-68
2022/02/02 17:38:56;;;;;;;6.00;4.43;;;9.00;99.90;;;;;;5074987;28;20187;-68
2022/02/02 17:41:53;;;;;;;16.10;11.50;;;9.00;99.90;;;;;;5074447;28;20183;-68
2022/02/02 18:12:15;;;;;;;8.55;6.40;;;8.90;99.90;;;;;;5043799;28;20198;-68
2022/02/02 18:12:25;;;;;;;19.42;13.48;;;8.90;99.90;;;;;;5074856;28;20182;-68
2022/02/02 18:20:29;;;;;;;8.73;5.90;;;8.90;99.90;;;;;;5074436;28;20190;-68
2022/02/02 18:23:03;;;;;;;18.10;11.68;;;8.90;99.90;;;;;;5074319;28;20201;-68
2022/02/02 18:25:37;;;;;;;9.57;6.97;;;8.90;99.90;;;;;;5074081;28;20402;-68
2022/02/02 18:28:12;;;;;;;7.20;5.15;;;8.90;99.90;;;;;;5074097;28;20206;-68
2022/02/02 18:30:50;;;;;;;8.43;6.28;;;8.80;99.90;;;;;;5073909;28;20198;-68
2022/02/02 18:33:27;;;;;;;9.07;5.72;;;8.90;99.90;;;;;;5073861;28;20198;-68
2022/02/02 18:36:01;;;;;;;11.90;7.60;;;8.90;99.90;;;;;;5073866;28;20237;-68
2022/02/02 18:47:11;;;;;;;8.43;5.88;;;8.90;99.90;;;;;;5062153;28;20585;-67
2022/02/02 18:52:44;;;;;;;9.63;6.40;;;8.90;99.90;;;;;;5052180;28;20199;-68
2022/02/02 18:55:23;;;;;;;6.93;5.57;;;8.80;99.90;;;;;;5052522;28;20226;-68
2022/02/02 18:58:01;;;;;;;6.43;5.40;;;8.80;99.90;;;;;;5052346;28;20207;-68
2022/02/02 19:00:45;;;;;;;16.08;10.18;;;8.80;99.90;;;;;;5052534;28;20229;-68
2022/02/02 19:31:13;;;;;;;4.10;3.70;;;8.40;99.90;;;;;;5051899;28;20234;-68
2022/02/02 19:53:52;;;;;;;11.13;10.02;;;8.20;99.90;;;;;;5051773;28;20712;-69
2022/02/02 19:56:16;;;;;;;6.78;6.10;;;8.20;99.90;;;;;;5055445;28;20766;-68
2022/02/02 20:01:55;;;;;;;5.65;5.15;;;8.20;99.90;;;;;;5055706;28;20206;-69
2022/02/02 20:04:39;;;;;;;4.95;4.55;;;8.20;99.90;;;;;;5055360;28;20310;-68
2022/02/02 20:07:25;;;;;;;6.53;4.70;;;8.10;99.90;;;;;;5055264;28;20310;-68
2022/02/02 20:09:58;;;;;;;5.00;4.50;;;8.10;99.90;;;;;;5054974;28;20239;-67
2022/02/02 20:12:29;;;;;;;5.97;4.85;;;8.10;99.90;;;;;;5055087;28;20636;-67
2022/02/02 20:14:56;;;;;;;7.47;6.45;;;8.10;99.90;;;;;;5055350;28;20220;-67
2022/02/02 20:17:25;;;;;;;8.15;6.00;;;8.10;99.90;;;;;;5055111;28;20203;-66
2022/02/02 20:19:55;;;;;;;6.10;5.32;;;8.10;99.90;;;;;;5055139;28;20298;-66
2022/02/02 20:22:26;;;;;;;6.68;5.40;;;8.00;99.90;;;;;;5055177;28;20203;-66
2022/02/02 20:24:57;;;;;;;7.00;6.30;;;7.90;99.90;;;;;;5055339;28;20223;-67
2022/02/02 20:27:24;;;;;;;8.85;6.50;;;7.90;99.90;;;;;;5055391;28;20230;-66
2022/02/02 20:29:51;;;;;;;7.68;6.88;;;7.80;99.90;;;;;;5055265;28;20203;-66
2022/02/02 20:32:18;;;;;;;12.55;10.27;;;7.80;99.90;;;;;;5055175;28;20195;-66
2022/02/02 20:34:45;;;;;;;27.13;22.95;;;7.80;99.90;;;;;;5055048;28;20227;-66
2022/02/02 20:37:15;;;;;;;36.83;25.23;;;7.80;99.90;;;;;;5054577;28;20290;-66
2022/02/02 20:39:50;;;;;;;23.95;16.42;;;7.80;99.90;;;;;;5054832;28;20211;-66
2022/02/02 20:42:24;;;;;;;37.13;24.15;;;7.80;99.90;;;;;;5054775;28;20561;-66
2022/02/02 20:45:29;;;;;;;31.33;23.90;;;7.80;99.90;;;;;;5055060;28;20261;-67
2022/02/02 21:04:48;;;;;;;3.92;3.33;;;7.70;99.90;;;;;;5053893;28;20234;-66
2022/02/02 21:07:29;;;;;;;3.60;3.30;;;7.80;99.90;;;;;;5054515;28;20259;-66
2022/02/02 21:10:02;;;;;;;4.25;3.50;;;7.80;99.90;;;;;;5054490;28;20394;-66
2022/02/02 21:15:22;;;;;;;4.43;3.60;;;7.90;99.90;;;;;;5054690;28;20357;-68